Aérodrome :
LOGIN :

S'inscrire | Disclaimer

   EN    FR    IT 

 










Légende :    VFR   VFR Marginal   IFR   IFR Intensif   IFR Très Intensif
Visi : 
Plafond : 
>= 8 km
>= 3000ft
5 à 8 km
1000 à 3000 ft
1500m à 5 km
500 à 1000 ft
800 à 1500m
200 à 500 ft
< 800m
< 200 ft
Symboles :   Orages  Brouillard  Fortes neiges  Fortes précipitations  Vent > 20 kt
SIGMETs :   Divers  Orages  Givrage  Turbulence  Onde Orograph.  Cendres Volcan.






- Altitude de l'aérodrome : 44 ft
- Code IATA : SOU


EGHI - Southampton

DERNIER METAR :
  • 050720Z 15006KT 100V190 9999 SCT012 17/14 Q1008

METARs EXPIRÉS :
  • 050650Z 16005KT 110V210 9999 SCT014 16/14 Q1008
  • 050620Z VRB02KT 9999 SCT015 15/14 Q1008
  • 050550Z VRB03KT 9999 FEW015 SCT024 15/14 Q1008
  • 050520Z 12003KT 9999 FEW012 SCT022 13/12 Q1009
  • 050450Z 13003KT 9000 MIFG FEW016 12/11 Q1009

TAF TAF EGHI
Valide du 05 à 06h jusqu'au 05 à 15h UTC


050526Z 0506/0515 17008KT 9999 FEW014 SCT020
PROB30
TEMPO 0506/0509 BKN014
PROB30
TEMPO 0509/0511 8000 -RA BKN014
TEMPO 0511/0515 6000 RA SHRA BKN014
PROB30
TEMPO 0512/0515 19015G25KT 4000 +RA BKN008
ATIS : +44 23 8062 7103



MET'MAP, la Météo Aéronautique d'un coup d'oeil ! - Copyright ORBIFLY Décembre 2007 - Disclaimer

ORBIFLY MET'MAP TEAM :

Programmation & Développement : Alexandra Zaïnal
Sur une idée originale de : Baudouin d'Aumeries
Assistance à la programmation : Marc-Olivier Méhu
Soutien technique & logistique : Manuel Goepfert

Contact : metmap@orbifly.com




SOURCES & CREDITS :

   NOAA